createdAt,value
2023-03-05T00:00:13.825Z,24.88
2023-03-05T00:04:13.800Z,24.97
2023-03-05T00:08:13.751Z,24.83
2023-03-05T00:12:13.718Z,24.92
2023-03-05T00:16:13.746Z,24.91
2023-03-05T00:20:13.629Z,24.92
2023-03-05T00:24:13.639Z,24.94
2023-03-05T00:28:13.570Z,24.94
2023-03-05T00:32:13.535Z,24.84
2023-03-05T00:36:13.553Z,24.82
2023-03-05T00:40:13.622Z,24.78
2023-03-05T00:44:13.699Z,24.85
2023-03-05T00:48:13.750Z,24.85
2023-03-05T00:52:13.871Z,24.82
2023-03-05T00:56:13.944Z,24.85
2023-03-05T01:00:13.988Z,24.88
2023-03-05T01:04:14.049Z,24.84
2023-03-05T01:08:14.101Z,24.78
2023-03-05T01:12:14.135Z,24.82
2023-03-05T01:16:14.257Z,24.79
2023-03-05T01:20:14.241Z,24.74
2023-03-05T01:24:14.283Z,24.68
2023-03-05T01:28:14.370Z,24.74
2023-03-05T01:32:14.442Z,24.74
2023-03-05T01:36:14.486Z,24.78
2023-03-05T01:40:14.556Z,24.77
2023-03-05T01:44:14.590Z,24.71
2023-03-05T01:48:14.712Z,24.85
2023-03-05T01:52:14.764Z,24.89
2023-03-05T01:56:14.846Z,24.87
2023-03-05T02:00:14.910Z,24.87
2023-03-05T02:04:15.013Z,24.86
2023-03-05T02:08:15.116Z,24.80
2023-03-05T02:12:15.171Z,24.89
2023-03-05T02:16:15.218Z,24.90
2023-03-05T02:20:15.236Z,24.90
2023-03-05T02:24:15.280Z,24.83
2023-03-05T02:28:15.350Z,24.85
2023-03-05T02:32:15.596Z,24.85
2023-03-05T02:36:15.523Z,24.82
2023-03-05T02:40:15.561Z,24.89
2023-03-05T02:44:15.656Z,24.83
2023-03-05T02:48:15.775Z,24.85
2023-03-05T02:52:15.845Z,24.85
2023-03-05T02:56:15.909Z,24.84
2023-03-05T03:00:16.139Z,24.80
2023-03-05T03:04:16.111Z,24.79
2023-03-05T03:08:16.185Z,24.82
2023-03-05T03:12:16.311Z,24.83
2023-03-05T03:16:16.436Z,24.79
2023-03-05T03:20:16.534Z,24.86
2023-03-05T03:24:16.652Z,24.80
2023-03-05T03:28:16.730Z,24.86
2023-03-05T03:32:16.899Z,24.82
2023-03-05T03:36:16.946Z,24.90
2023-03-05T03:40:17.041Z,24.87
2023-03-05T03:44:17.141Z,24.82
2023-03-05T03:48:17.270Z,24.84
2023-03-05T03:52:17.373Z,24.80
2023-03-05T03:56:17.488Z,24.80
2023-03-05T04:00:17.619Z,24.70
2023-03-05T04:04:17.714Z,24.73
2023-03-05T04:08:17.809Z,24.83
2023-03-05T04:12:17.951Z,24.73
2023-03-05T04:16:18.011Z,24.74
2023-03-05T04:20:18.095Z,24.77
2023-03-05T04:24:18.174Z,24.72
2023-03-05T04:28:18.290Z,24.69
2023-03-05T04:32:18.398Z,24.70
2023-03-05T04:36:18.467Z,24.60
2023-03-05T04:40:18.558Z,24.67
2023-03-05T04:44:18.716Z,24.60
2023-03-05T04:48:18.821Z,24.59
2023-03-05T04:52:18.976Z,24.59
2023-03-05T04:56:19.041Z,24.57
2023-03-05T05:00:19.212Z,24.57
2023-03-05T05:04:19.309Z,24.57
2023-03-05T05:08:19.480Z,24.53
2023-03-05T05:12:19.623Z,24.48
2023-03-05T05:16:19.836Z,24.56
2023-03-05T05:20:19.915Z,24.49
2023-03-05T05:24:20.166Z,24.51
2023-03-05T05:28:20.232Z,24.46
2023-03-05T05:32:20.441Z,24.50
2023-03-05T05:36:20.497Z,24.48
2023-03-05T05:40:20.684Z,24.47
2023-03-05T05:44:20.853Z,24.48
2023-03-05T05:48:20.987Z,24.48
2023-03-05T05:52:21.078Z,24.44
2023-03-05T05:56:21.241Z,24.43
2023-03-05T06:00:21.341Z,24.41
2023-03-05T06:04:21.471Z,24.41
2023-03-05T06:08:21.681Z,24.27
2023-03-05T06:12:21.701Z,24.23
2023-03-05T06:16:21.911Z,24.21
2023-03-05T06:20:22.081Z,24.23
2023-03-05T06:24:22.308Z,24.13
2023-03-05T06:28:22.458Z,24.20
2023-03-05T06:32:22.716Z,24.13
2023-03-05T06:38:05.355Z,24.18
2023-03-05T06:42:05.282Z,24.11
2023-03-05T06:46:05.331Z,24.06
2023-03-05T06:50:05.207Z,24.10
2023-03-05T06:54:05.192Z,24.10
2023-03-05T06:58:05.133Z,24.01
2023-03-05T07:02:05.166Z,24.03
2023-03-05T07:06:05.071Z,24.00
2023-03-05T07:10:05.027Z,23.95
2023-03-05T07:14:05.025Z,23.92
2023-03-05T07:18:05.016Z,23.97
2023-03-05T07:22:04.955Z,24.00
2023-03-05T07:26:05.110Z,23.89
2023-03-05T07:30:05.295Z,23.81
2023-03-05T07:34:05.416Z,23.81
2023-03-05T07:38:05.572Z,23.82
2023-03-05T07:42:05.767Z,23.76
2023-03-05T07:46:05.935Z,23.75
2023-03-05T07:50:06.040Z,23.68
2023-03-05T07:54:06.199Z,23.68
2023-03-05T07:58:06.352Z,23.71
2023-03-05T08:02:06.534Z,23.71
2023-03-05T08:06:06.660Z,23.71
2023-03-05T08:10:06.840Z,23.64
2023-03-05T08:14:06.970Z,23.57
2023-03-05T08:18:07.146Z,23.67
2023-03-05T08:22:07.285Z,23.68
2023-03-05T08:26:07.420Z,23.64
2023-03-05T08:30:07.548Z,23.60
2023-03-05T08:34:07.748Z,23.59
2023-03-05T08:38:07.839Z,23.59
2023-03-05T08:42:08.993Z,23.54
2023-03-05T08:46:08.147Z,23.57
2023-03-05T08:50:08.219Z,23.54
2023-03-05T08:54:08.363Z,23.52
2023-03-05T08:58:08.498Z,23.57
2023-03-05T09:02:08.671Z,23.57
2023-03-05T09:06:08.761Z,23.62
2023-03-05T09:10:08.812Z,23.60
2023-03-05T09:14:08.954Z,23.58
2023-03-05T09:18:09.026Z,23.56
2023-03-05T09:22:09.083Z,23.53
2023-03-05T09:26:09.222Z,23.53
2023-03-05T09:30:09.305Z,23.62
2023-03-05T09:34:09.414Z,23.58
2023-03-05T09:38:09.485Z,23.58
2023-03-05T09:42:10.610Z,23.54
2023-03-05T09:46:09.679Z,23.56
2023-03-05T09:50:09.718Z,23.72
2023-03-05T09:54:09.728Z,23.68
2023-03-05T09:58:09.765Z,23.68
2023-03-05T10:02:09.837Z,23.67
2023-03-05T10:06:09.927Z,23.57
2023-03-05T10:10:10.020Z,23.57
2023-03-05T10:14:10.065Z,23.65
2023-03-05T10:18:10.094Z,23.74
2023-03-05T10:22:10.163Z,23.78
2023-03-05T10:26:10.188Z,23.75
2023-03-05T10:30:10.242Z,23.73
2023-03-05T10:34:10.265Z,23.80
2023-03-05T10:38:10.260Z,23.79
2023-03-05T10:42:10.321Z,23.81
2023-03-05T10:46:10.364Z,23.84
2023-03-05T10:50:10.367Z,23.73
2023-03-05T10:54:10.401Z,23.70
2023-03-05T10:58:10.453Z,23.76
2023-03-05T11:02:10.483Z,23.73
2023-03-05T11:06:10.525Z,23.73
2023-03-05T11:10:10.525Z,23.71
2023-03-05T11:14:10.580Z,23.77
2023-03-05T11:18:10.611Z,23.79
2023-03-05T11:22:10.574Z,23.80
2023-03-05T11:26:10.605Z,23.83
2023-03-05T11:30:10.640Z,23.84
2023-03-05T11:34:10.610Z,23.81
2023-03-05T11:38:10.634Z,23.87
2023-03-05T11:42:10.628Z,23.86
2023-03-05T11:46:10.652Z,23.86
2023-03-05T11:50:10.599Z,23.89
2023-03-05T11:54:10.626Z,23.90
2023-03-05T11:58:10.683Z,23.96
2023-03-05T12:02:10.680Z,23.89
2023-03-05T12:06:10.868Z,23.91
2023-03-05T12:10:11.041Z,23.94
2023-03-05T12:14:11.221Z,23.87
2023-03-05T12:18:11.472Z,23.77
2023-03-05T12:22:11.422Z,23.78
2023-03-05T12:26:11.336Z,23.70
2023-03-05T12:30:11.309Z,23.77
2023-03-05T12:34:11.275Z,23.70
2023-03-05T12:38:26.105Z,23.65
2023-03-05T12:42:12.221Z,23.63
2023-03-05T12:46:11.178Z,23.54
2023-03-05T12:50:11.204Z,23.52
2023-03-05T12:54:11.373Z,23.45
2023-03-05T12:58:11.455Z,23.43
2023-03-05T13:02:11.563Z,23.35
2023-03-05T13:06:11.618Z,23.34
2023-03-05T13:10:11.611Z,23.29
2023-03-05T13:14:11.672Z,23.27
2023-03-05T13:18:11.628Z,23.21
2023-03-05T13:22:11.648Z,23.16
2023-03-05T13:26:11.675Z,23.22
2023-03-05T13:30:11.777Z,23.15
2023-03-05T13:34:11.792Z,23.06
2023-03-05T13:38:11.900Z,23.05
2023-03-05T13:42:12.095Z,23.04
2023-03-05T13:46:12.147Z,23.10
2023-03-05T13:50:12.054Z,23.04
2023-03-05T13:54:11.973Z,23.05
2023-03-05T13:58:11.956Z,23.05
2023-03-05T14:02:11.926Z,23.16
2023-03-05T14:06:11.895Z,23.22
2023-03-05T14:10:11.849Z,23.23
2023-03-05T14:14:11.824Z,23.32
2023-03-05T14:18:11.866Z,23.39
2023-03-05T14:22:11.887Z,23.46
2023-03-05T14:26:11.817Z,23.55
2023-03-05T14:30:11.816Z,23.57
2023-03-05T14:34:11.762Z,23.63
2023-03-05T14:38:11.737Z,23.72
2023-03-05T14:42:11.722Z,23.70
2023-03-05T14:46:13.479Z,23.78
2023-03-05T14:50:11.614Z,23.83
2023-03-05T14:54:11.577Z,23.84
2023-03-05T14:58:11.785Z,23.83
2023-03-05T15:02:11.709Z,23.91
2023-03-05T15:06:11.687Z,23.87
2023-03-05T15:10:11.642Z,23.92
2023-03-05T15:14:11.620Z,23.94
2023-03-05T15:18:11.565Z,23.94
2023-03-05T15:22:11.549Z,24.01
2023-03-05T15:26:11.514Z,24.04
2023-03-05T15:30:11.479Z,24.01
2023-03-05T15:34:11.439Z,24.01
2023-03-05T15:38:11.417Z,24.02
2023-03-05T15:42:11.505Z,24.07
2023-03-05T15:46:11.769Z,24.02
2023-03-05T15:50:11.649Z,24.03
2023-03-05T15:54:11.663Z,24.03
2023-03-05T15:58:11.613Z,24.02
2023-03-05T16:02:11.573Z,24.02
2023-03-05T16:06:11.516Z,24.00
2023-03-05T16:10:11.487Z,24.06
2023-03-05T16:14:11.472Z,24.07
2023-03-05T16:18:11.427Z,24.06
2023-03-05T16:22:11.377Z,24.08
2023-03-05T16:26:11.359Z,24.11
2023-03-05T16:30:11.543Z,24.23
2023-03-05T16:34:11.742Z,24.27
2023-03-05T16:38:11.739Z,24.31
2023-03-05T16:42:11.694Z,24.32
2023-03-05T16:46:11.663Z,24.39
2023-03-05T16:50:11.617Z,24.43
2023-03-05T16:54:11.594Z,24.47
2023-03-05T16:58:11.545Z,24.44
2023-03-05T17:02:11.504Z,24.48
2023-03-05T17:06:11.469Z,24.49
2023-03-05T17:10:11.440Z,24.49
2023-03-05T17:14:11.412Z,24.51
2023-03-05T17:18:11.357Z,24.60
2023-03-05T17:22:11.333Z,24.57
2023-03-05T17:26:11.322Z,24.54
2023-03-05T17:30:11.281Z,24.52
2023-03-05T17:34:11.207Z,24.45
2023-03-05T17:38:11.209Z,24.48
2023-03-05T17:42:11.166Z,24.49
2023-03-05T17:46:11.227Z,24.47
2023-03-05T17:50:11.783Z,24.35
2023-03-05T17:54:11.022Z,24.37
2023-03-05T17:58:11.019Z,24.36
2023-03-05T18:02:10.982Z,24.30
2023-03-05T18:06:11.003Z,24.29
2023-03-05T18:10:11.164Z,24.22
2023-03-05T18:14:11.306Z,24.20
2023-03-05T18:18:11.497Z,24.20
2023-03-05T18:22:11.663Z,24.24
2023-03-05T18:26:11.859Z,24.21
2023-03-05T18:30:12.030Z,24.15
2023-03-05T18:34:12.243Z,24.18
2023-03-05T18:38:12.377Z,24.14
2023-03-05T18:42:12.572Z,24.12
2023-03-05T18:46:12.778Z,24.01
2023-03-05T18:50:13.009Z,24.02
2023-03-05T18:54:13.195Z,24.09
2023-03-05T18:58:13.183Z,24.06
2023-03-05T19:02:13.162Z,24.08
2023-03-05T19:06:13.130Z,24.12
2023-03-05T19:10:13.093Z,24.02
2023-03-05T19:14:13.044Z,24.05
2023-03-05T19:18:13.007Z,24.03
2023-03-05T19:22:12.965Z,24.02
2023-03-05T19:26:12.941Z,24.03
2023-03-05T19:30:12.933Z,23.97
2023-03-05T19:34:12.985Z,23.90
2023-03-05T19:38:13.162Z,23.89
2023-03-05T19:42:13.357Z,23.87
2023-03-05T19:46:13.596Z,23.79
2023-03-05T19:50:13.720Z,23.73
2023-03-05T19:54:13.862Z,23.77
2023-03-05T19:58:14.000Z,23.72
2023-03-05T20:02:14.118Z,23.73
2023-03-05T20:06:14.230Z,23.70
2023-03-05T20:10:14.440Z,23.59
2023-03-05T20:14:14.585Z,23.56
2023-03-05T20:18:14.612Z,23.54
2023-03-05T20:22:14.645Z,23.53
2023-03-05T20:26:14.627Z,23.57
2023-03-05T20:30:14.588Z,23.53
2023-03-05T20:34:14.570Z,23.57
2023-03-05T20:38:14.619Z,23.50
2023-03-05T20:42:14.600Z,23.43
2023-03-05T20:46:14.619Z,23.51
2023-03-05T20:50:14.584Z,23.48
2023-03-05T20:54:14.624Z,23.52
2023-03-05T20:58:14.674Z,23.57
2023-03-05T21:02:14.730Z,23.45
2023-03-05T21:06:14.723Z,23.47
2023-03-05T21:10:14.792Z,23.49
2023-03-05T21:14:14.761Z,23.45
2023-03-05T21:18:14.819Z,23.44
2023-03-05T21:22:14.790Z,23.37
2023-03-05T21:26:14.906Z,23.34
2023-03-05T21:30:14.828Z,23.40
2023-03-05T21:34:14.830Z,23.41
2023-03-05T21:38:14.853Z,23.37
2023-03-05T21:42:14.834Z,23.32
2023-03-05T21:46:14.912Z,23.27
2023-03-05T21:50:14.888Z,23.21
2023-03-05T21:54:14.889Z,23.32
2023-03-05T21:58:14.967Z,23.29
2023-03-05T22:02:14.990Z,23.28
2023-03-05T22:06:15.054Z,23.25
2023-03-05T22:10:15.061Z,23.32
2023-03-05T22:14:16.837Z,23.30
2023-03-05T22:18:15.191Z,23.25
2023-03-05T22:22:15.261Z,23.22
2023-03-05T22:26:15.357Z,23.16
2023-03-05T22:30:15.418Z,23.20
2023-03-05T22:34:15.516Z,23.24
2023-03-05T22:38:15.622Z,23.23
2023-03-05T22:42:15.690Z,23.26
2023-03-05T22:46:15.808Z,23.17
2023-03-05T22:50:15.822Z,23.26
2023-03-05T22:54:15.939Z,23.16
2023-03-05T22:58:16.014Z,23.11
2023-03-05T23:02:16.115Z,23.17
2023-03-05T23:06:16.202Z,23.13
2023-03-05T23:10:16.278Z,23.16
2023-03-05T23:14:16.371Z,23.20
2023-03-05T23:18:16.464Z,23.17
2023-03-05T23:22:16.568Z,23.14
2023-03-05T23:26:16.653Z,23.16
2023-03-05T23:30:16.727Z,23.16
2023-03-05T23:34:16.837Z,23.19
2023-03-05T23:38:16.946Z,23.11
2023-03-05T23:42:16.998Z,23.14
2023-03-05T23:46:17.147Z,23.15
2023-03-05T23:50:17.159Z,23.08
2023-03-05T23:54:17.296Z,23.06
2023-03-05T23:58:17.420Z,23.14
